Time;durP1;ratioP1;P1;durP2;ratioP2;P2;SDS_P1;SDS_P2;PMS_P1;PMS_P2;Temp;Humidity;BMP_temperature;BMP_pressure;BME280_temperature;BME280_humidity;BME280_pressure;Samples;Min_cycle;Max_cycle;Signal;HPM_P1;HPM_P2
2021/06/08 00:00:59;;;;;;;13.60;12.32;;;;;;;17.10;100.00;101622.88;5015808;28;20211;-73
2021/06/08 00:03:25;;;;;;;13.10;11.80;;;;;;;17.05;100.00;101622.13;5031544;28;20219;-74
2021/06/08 00:05:52;;;;;;;13.38;12.00;;;;;;;17.08;100.00;101618.81;5014307;28;20255;-74
2021/06/08 00:08:18;;;;;;;13.63;12.23;;;;;;;17.02;100.00;101615.28;5015696;28;20605;-75
2021/06/08 00:10:44;;;;;;;13.80;12.40;;;;;;;16.83;100.00;101621.00;5031081;28;20277;-72
2021/06/08 00:13:13;;;;;;;13.85;12.45;;;;;;;16.98;100.00;101613.44;5031588;28;20211;-74
2021/06/08 00:15:39;;;;;;;13.77;12.40;;;;;;;16.93;100.00;101612.66;5014551;28;20927;-73
2021/06/08 00:18:06;;;;;;;12.70;11.45;;;;;;;16.78;100.00;101608.16;5016353;28;20179;-74
2021/06/08 00:20:32;;;;;;;13.25;12.05;;;;;;;17.00;100.00;101612.03;5014645;28;21001;-74
2021/06/08 00:23:02;;;;;;;13.75;12.05;;;;;;;17.06;100.00;101610.84;5029628;28;20590;-72
2021/06/08 00:25:30;;;;;;;14.30;12.80;;;;;;;17.14;100.00;101617.63;5014440;28;20776;-73
2021/06/08 00:27:57;;;;;;;14.10;12.70;;;;;;;16.98;100.00;101624.41;5032556;28;20611;-73
2021/06/08 00:30:30;;;;;;;14.02;12.63;;;;;;;16.89;100.00;101614.38;5027110;28;20211;-74
2021/06/08 00:32:56;;;;;;;15.95;14.18;;;;;;;16.94;100.00;101623.38;4999296;28;20720;-70
2021/06/08 00:35:23;;;;;;;15.55;13.57;;;;;;;16.75;100.00;101614.19;5015605;28;20192;-75
2021/06/08 00:37:49;;;;;;;20.13;14.35;;;;;;;16.83;100.00;101613.59;5021221;28;20289;-74
2021/06/08 00:40:16;;;;;;;16.38;14.68;;;;;;;16.82;100.00;101614.69;5031347;28;20685;-72
2021/06/08 00:42:47;;;;;;;17.85;14.40;;;;;;;16.87;100.00;101606.41;5018063;28;20211;-73
2021/06/08 00:45:14;;;;;;;17.23;15.45;;;;;;;16.90;100.00;101614.06;5016210;28;20325;-73
2021/06/08 00:47:41;;;;;;;18.03;15.33;;;;;;;16.79;100.00;101604.28;5002774;28;20212;-73
2021/06/08 00:50:08;;;;;;;20.35;16.33;;;;;;;16.63;100.00;101600.06;5017289;28;20204;-74
2021/06/08 00:52:34;;;;;;;18.20;16.30;;;;;;;16.78;100.00;101610.91;5034514;28;20236;-73
2021/06/08 00:55:02;;;;;;;21.02;17.27;;;;;;;16.78;100.00;101597.16;5035539;28;20653;-73
2021/06/08 00:57:32;;;;;;;20.52;16.33;;;;;;;16.83;100.00;101599.88;5034727;28;20239;-73
2021/06/08 01:00:02;;;;;;;19.92;17.67;;;;;;;16.77;100.00;101597.44;5051701;28;20229;-74
2021/06/08 01:02:32;;;;;;;19.85;17.40;;;;;;;16.66;100.00;101602.22;5017001;28;20223;-72
2021/06/08 01:05:05;;;;;;;19.63;17.50;;;;;;;16.68;100.00;101602.78;5035512;28;20822;-72
2021/06/08 01:07:33;;;;;;;20.27;16.50;;;;;;;16.78;100.00;101601.84;5017457;28;20229;-73
2021/06/08 01:09:59;;;;;;;19.80;17.70;;;;;;;16.70;100.00;101603.28;5035076;28;20203;-76
2021/06/08 01:12:29;;;;;;;20.33;16.88;;;;;;;16.56;100.00;101599.56;5016322;28;20215;-73
2021/06/08 01:14:55;;;;;;;23.73;18.20;;;;;;;16.82;100.00;101587.25;5002853;28;20580;-72
2021/06/08 01:17:21;;;;;;;22.58;18.13;;;;;;;16.83;100.00;101591.63;5033472;28;20235;-73
2021/06/08 01:19:47;;;;;;;22.38;18.35;;;;;;;16.73;100.00;101597.22;5018411;28;20218;-73
2021/06/08 01:22:14;;;;;;;20.70;18.50;;;;;;;16.68;100.00;101594.53;5030358;28;20585;-74
2021/06/08 01:24:41;;;;;;;25.77;18.65;;;;;;;16.79;100.00;101593.31;5018437;28;20188;-73
2021/06/08 01:27:07;;;;;;;20.58;18.15;;;;;;;16.71;100.00;101591.19;5000900;28;20232;-73
2021/06/08 01:29:36;;;;;;;21.98;18.33;;;;;;;16.68;100.00;101591.78;5001927;28;20226;-73
2021/06/08 01:32:05;;;;;;;20.25;18.13;;;;;;;16.77;100.00;101594.72;5016097;28;20583;-73
2021/06/08 01:34:32;;;;;;;24.25;18.40;;;;;;;16.75;100.00;101585.94;5001744;28;20199;-72
2021/06/08 01:36:59;;;;;;;25.70;19.37;;;;;;;16.77;100.00;101592.78;5000640;28;20588;-73
2021/06/08 01:39:26;;;;;;;24.83;18.73;;;;;;;16.84;100.00;101595.19;5018578;28;20231;-74
2021/06/08 01:41:53;;;;;;;25.25;19.10;;;;;;;16.83;100.00;101588.91;5025350;28;20227;-73
2021/06/08 01:44:20;;;;;;;24.53;19.37;;;;;;;16.85;100.00;101581.19;5034872;28;20658;-73
2021/06/08 01:46:47;;;;;;;22.97;18.83;;;;;;;16.86;100.00;101582.00;5008974;28;20600;-74
2021/06/08 01:49:13;;;;;;;27.90;19.50;;;;;;;16.74;100.00;101587.88;5017393;28;20591;-74
2021/06/08 01:52:12;;;;;;;25.83;18.75;;;;;;;16.70;100.00;101584.09;4999824;28;20692;-72
2021/06/08 01:55:08;;;;;;;26.23;19.25;;;;;;;16.43;100.00;101595.88;5033948;28;20661;-73
2021/06/08 01:57:47;;;;;;;24.03;19.73;;;;;;;16.57;100.00;101590.25;5033517;28;20219;-74
2021/06/08 02:00:14;;;;;;;26.67;21.07;;;;;;;16.49;100.00;101591.97;5016230;28;20357;-74
2021/06/08 02:03:05;;;;;;;30.02;21.15;;;;;;;16.40;100.00;101593.69;5033164;28;20238;-73
2021/06/08 02:05:31;;;;;;;27.80;21.03;;;;;;;16.48;100.00;101593.06;5017876;28;20715;-73
2021/06/08 02:07:58;;;;;;;28.90;21.63;;;;;;;16.67;100.00;101584.66;5034317;28;20238;-73
2021/06/08 02:10:59;;;;;;;31.15;22.15;;;;;;;16.52;100.00;101588.63;5033481;28;20226;-74
2021/06/08 02:13:40;;;;;;;30.53;22.57;;;;;;;16.58;100.00;101591.06;5020183;28;20674;-74
2021/06/08 02:16:44;;;;;;;27.63;22.02;;;;;;;16.51;100.00;101589.75;5024408;28;20227;-74
2021/06/08 02:19:13;;;;;;;30.57;21.77;;;;;;;16.51;100.00;101595.25;4993065;28;20693;-76
2021/06/08 02:21:43;;;;;;;28.50;21.17;;;;;;;16.50;100.00;101594.44;5012002;28;20246;-74
2021/06/08 02:24:14;;;;;;;28.93;22.97;;;;;;;16.47;100.00;101599.69;5018553;28;20860;-72
2021/06/08 02:26:41;;;;;;;27.05;22.10;;;;;;;16.64;100.00;101601.69;5003833;28;20307;-73
2021/06/08 02:29:15;;;;;;;32.47;23.37;;;;;;;16.64;100.00;101595.38;4985095;28;20224;-73
2021/06/08 02:31:43;;;;;;;31.93;22.67;;;;;;;16.49;100.00;101594.72;4978179;28;20298;-73
2021/06/08 02:34:16;;;;;;;31.27;22.77;;;;;;;16.52;100.00;101596.88;4999320;28;20613;-73
2021/06/08 02:36:45;;;;;;;30.30;22.77;;;;;;;16.43;100.00;101591.19;4982247;28;20223;-74
2021/06/08 02:39:12;;;;;;;30.33;23.23;;;;;;;16.57;100.00;101606.72;5000214;28;20204;-74
2021/06/08 02:41:38;;;;;;;33.58;24.25;;;;;;;16.50;100.00;101596.34;4989376;28;20584;-74
2021/06/08 02:44:10;;;;;;;33.90;23.33;;;;;;;16.32;100.00;101594.31;5013892;28;20188;-75
2021/06/08 02:46:39;;;;;;;36.40;24.47;;;;;;;16.45;100.00;101599.97;5014015;28;20646;-73
2021/06/08 02:49:17;;;;;;;32.50;24.33;;;;;;;16.55;100.00;101596.31;5032405;28;20235;-75
2021/06/08 02:51:45;;;;;;;32.60;24.27;;;;;;;16.52;100.00;101600.47;5012942;28;20238;-74
2021/06/08 02:54:16;;;;;;;32.53;24.70;;;;;;;16.55;100.00;101610.03;4998694;28;20219;-74
2021/06/08 02:56:43;;;;;;;32.03;24.33;;;;;;;16.56;100.00;101607.00;4995021;28;20314;-74
2021/06/08 02:59:10;;;;;;;32.50;24.77;;;;;;;16.60;100.00;101611.59;5013342;28;20204;-74
2021/06/08 03:01:40;;;;;;;33.23;25.57;;;;;;;16.65;100.00;101617.06;4995426;28;20320;-73
2021/06/08 03:04:07;;;;;;;33.07;24.70;;;;;;;16.57;100.00;101608.63;4997478;28;20284;-72
2021/06/08 03:07:01;;;;;;;33.22;23.88;;;;;;;16.65;100.00;101606.09;5012127;28;20589;-72
2021/06/08 03:09:39;;;;;;;32.13;24.57;;;;;;;16.45;100.00;101607.38;5014084;28;20254;-73
2021/06/08 03:12:09;;;;;;;31.73;24.27;;;;;;;16.51;100.00;101601.53;5022627;28;20303;-72
2021/06/08 03:14:40;;;;;;;32.45;25.33;;;;;;;16.47;100.00;101610.66;4999802;28;20283;-73
2021/06/08 03:17:10;;;;;;;30.83;24.85;;;;;;;16.52;100.00;101610.59;5012666;28;20220;-71
2021/06/08 03:19:39;;;;;;;32.17;24.45;;;;;;;16.51;100.00;101606.22;5028310;28;20436;-72
2021/06/08 03:22:15;;;;;;;31.92;24.58;;;;;;;16.46;100.00;101603.50;5011398;28;20285;-73
2021/06/08 03:24:47;;;;;;;29.17;23.88;;;;;;;16.46;100.00;101606.25;4997991;28;20654;-73
2021/06/08 03:27:14;;;;;;;31.33;24.17;;;;;;;16.42;100.00;101603.25;4995663;28;20290;-72
2021/06/08 03:29:53;;;;;;;31.53;24.83;;;;;;;16.56;100.00;101610.56;4997521;28;20207;-74
2021/06/08 03:32:23;;;;;;;28.30;23.90;;;;;;;16.60;100.00;101608.88;5030721;28;20211;-74
2021/06/08 03:34:55;;;;;;;31.47;24.43;;;;;;;16.66;100.00;101607.69;5013816;28;20736;-75
2021/06/08 03:37:21;;;;;;;30.58;23.98;;;;;;;16.68;100.00;101605.50;5012164;28;20235;-73
2021/06/08 03:39:50;;;;;;;26.97;23.80;;;;;;;16.78;100.00;101605.41;5012799;28;20575;-73
2021/06/08 03:42:16;;;;;;;28.17;22.80;;;;;;;16.77;100.00;101602.94;5010795;28;20681;-73
2021/06/08 03:44:42;;;;;;;28.20;23.25;;;;;;;16.72;100.00;101598.34;5032278;28;20190;-73
2021/06/08 03:50:02;;;;;;;26.65;22.58;;;;;;;16.93;100.00;101605.25;5024419;28;20204;-72
2021/06/08 03:52:31;;;;;;;24.77;22.17;;;;;;;16.84;100.00;101601.50;4976826;28;20597;-74
2021/06/08 03:54:58;;;;;;;26.25;22.73;;;;;;;16.64;100.00;101607.16;4987873;28;20183;-73
2021/06/08 03:57:29;;;;;;;25.35;22.27;;;;;;;16.77;100.00;101611.97;5012467;28;20231;-74
2021/06/08 03:59:57;;;;;;;25.92;23.13;;;;;;;16.93;100.00;101610.75;4987534;28;20585;-73
2021/06/08 04:02:23;;;;;;;25.58;22.30;;;;;;;16.63;100.00;101608.28;4978077;28;20648;-74
2021/06/08 04:04:49;;;;;;;24.80;22.10;;;;;;;16.81;100.00;101618.56;4980399;28;20188;-73
2021/06/08 04:07:22;;;;;;;25.77;21.70;;;;;;;16.74;100.00;101617.22;4979174;28;20224;-74
2021/06/08 04:10:07;;;;;;;25.75;22.90;;;;;;;16.92;100.00;101609.09;5001906;28;20207;-73
2021/06/08 04:12:34;;;;;;;26.45;23.65;;;;;;;16.82;100.00;101617.44;4981322;28;20727;-75
2021/06/08 04:15:03;;;;;;;27.30;22.67;;;;;;;16.95;100.00;101614.81;5000692;28;20560;-74
2021/06/08 04:17:32;;;;;;;26.77;23.85;;;;;;;16.92;100.00;101609.09;5015923;28;20708;-72
2021/06/08 04:19:59;;;;;;;27.67;24.70;;;;;;;16.89;100.00;101611.63;4984336;28;20214;-73
2021/06/08 04:22:34;;;;;;;26.73;23.27;;;;;;;16.93;100.00;101605.25;4997122;28;20239;-73
2021/06/08 04:25:04;;;;;;;26.60;22.23;;;;;;;17.07;100.00;101612.50;4985228;28;20190;-75
2021/06/08 04:27:30;;;;;;;25.55;22.73;;;;;;;16.88;100.00;101615.47;5000929;28;20218;-73
2021/06/08 04:29:57;;;;;;;26.17;22.17;;;;;;;16.92;100.00;101611.03;5018508;28;20208;-74
2021/06/08 04:32:24;;;;;;;27.33;22.08;;;;;;;16.99;100.00;101617.81;4998833;28;20227;-75
2021/06/08 04:34:56;;;;;;;26.58;22.38;;;;;;;17.19;100.00;101610.19;4999937;28;20196;-74
2021/06/08 04:37:27;;;;;;;24.45;21.85;;;;;;;17.24;100.00;101606.59;4985428;28;20644;-73
2021/06/08 04:39:54;;;;;;;22.27;20.08;;;;;;;17.05;100.00;101605.66;4984383;28;20214;-75
2021/06/08 04:42:21;;;;;;;21.63;19.38;;;;;;;17.20;100.00;101600.84;4998076;28;20216;-75
2021/06/08 04:44:48;;;;;;;21.95;19.70;;;;;;;17.20;100.00;101605.53;5000713;28;20689;-73
2021/06/08 04:47:15;;;;;;;19.90;17.90;;;;;;;17.06;100.00;101607.28;4994025;28;20235;-76
2021/06/08 04:49:42;;;;;;;19.80;17.80;;;;;;;17.26;100.00;101605.16;5000121;28;20219;-72
2021/06/08 04:52:11;;;;;;;21.15;18.95;;;;;;;17.51;100.00;101602.13;5016293;28;20697;-75
2021/06/08 04:54:37;;;;;;;20.27;18.17;;;;;;;17.42;100.00;101599.19;5016372;28;20370;-74
2021/06/08 04:57:04;;;;;;;21.10;18.90;;;;;;;17.47;100.00;101607.38;4995262;28;20805;-74
2021/06/08 04:59:50;;;;;;;20.63;18.48;;;;;;;17.71;100.00;101601.81;5016393;28;20208;-72
2021/06/08 05:02:19;;;;;;;21.40;18.70;;;;;;;17.73;100.00;101605.94;5013739;28;20228;-74
2021/06/08 05:04:46;;;;;;;19.95;17.95;;;;;;;17.57;100.00;101604.50;5015942;28;20188;-75
2021/06/08 05:07:16;;;;;;;19.92;17.92;;;;;;;17.63;100.00;101595.06;4997868;28;20322;-73
2021/06/08 05:09:48;;;;;;;21.27;18.45;;;;;;;17.71;100.00;101601.81;5015375;28;20212;-75
2021/06/08 05:12:15;;;;;;;20.15;18.15;;;;;;;17.64;100.00;101604.16;4981311;28;20318;-76
2021/06/08 05:14:50;;;;;;;19.88;17.88;;;;;;;17.63;100.00;101617.03;5031999;28;20193;-75
2021/06/08 05:17:20;;;;;;;20.02;18.05;;;;;;;17.76;100.00;101611.66;5014466;28;20715;-73
2021/06/08 05:19:48;;;;;;;19.75;17.85;;;;;;;17.67;100.00;101612.59;5015423;28;20295;-74
2021/06/08 05:22:20;;;;;;;19.48;17.58;;;;;;;17.89;100.00;101615.59;4997287;28;20228;-74
2021/06/08 05:24:52;;;;;;;19.98;18.08;;;;;;;17.66;100.00;101616.47;5013918;28;20192;-76
2021/06/08 05:27:22;;;;;;;19.05;17.25;;;;;;;17.84;100.00;101619.22;4998499;28;20239;-75
2021/06/08 05:29:53;;;;;;;18.95;16.95;;;;;;;17.73;100.00;101619.69;4999457;28;20208;-73
2021/06/08 05:32:19;;;;;;;19.45;17.48;;;;;;;17.91;100.00;101618.84;4980329;28;20223;-75
2021/06/08 05:34:49;;;;;;;18.25;16.45;;;;;;;18.12;100.00;101627.34;4998743;28;20199;-75
2021/06/08 05:37:19;;;;;;;18.55;16.75;;;;;;;18.19;100.00;101630.56;5014152;28;20634;-74
2021/06/08 05:39:46;;;;;;;17.60;15.75;;;;;;;18.39;100.00;101630.25;5015692;28;20705;-74
2021/06/08 05:42:21;;;;;;;17.15;15.40;;;;;;;18.44;100.00;101619.13;5013720;28;20232;-74
2021/06/08 05:44:47;;;;;;;17.42;15.82;;;;;;;18.25;100.00;101628.53;4998307;28;20946;-74
2021/06/08 05:47:17;;;;;;;16.75;15.00;;;;;;;18.37;100.00;101624.22;4998330;28;20659;-73
2021/06/08 05:49:44;;;;;;;16.17;14.75;;;;;;;18.40;100.00;101629.13;5014432;28;20760;-74
2021/06/08 05:52:11;;;;;;;16.13;14.55;;;;;;;18.54;100.00;101627.25;5012996;28;20776;-73
2021/06/08 05:54:38;;;;;;;16.85;15.15;;;;;;;18.59;100.00;101624.41;5015089;28;20184;-75
2021/06/08 05:57:07;;;;;;;16.00;14.48;;;;;;;18.63;100.00;101630.94;5014109;28;20314;-70
2021/06/08 05:59:34;;;;;;;15.88;14.27;;;;;;;18.56;100.00;101627.75;4998409;28;20219;-69
2021/06/08 06:02:02;;;;;;;15.20;13.70;;;;;;;18.48;100.00;101631.19;4994353;28;20236;-70
2021/06/08 06:04:30;;;;;;;15.52;13.95;;;;;;;18.61;100.00;101635.94;5014567;28;20180;-71
2021/06/08 06:06:57;;;;;;;16.67;15.00;;;;;;;18.63;100.00;101639.19;5020195;28;20246;-73
2021/06/08 06:09:24;;;;;;;16.10;14.52;;;;;;;18.56;100.00;101638.75;5007687;28;20204;-72
2021/06/08 06:11:53;;;;;;;15.88;14.35;;;;;;;18.70;100.00;101634.09;5011296;28;20753;-73
2021/06/08 06:14:25;;;;;;;15.55;14.07;;;;;;;18.64;100.00;101636.16;5017313;28;20203;-73
2021/06/08 06:16:53;;;;;;;14.77;13.38;;;;;;;18.52;100.00;101646.81;5013646;28;20219;-73
2021/06/08 06:19:26;;;;;;;15.13;13.65;;;;;;;18.58;100.00;101633.78;5010202;28;20206;-73
2021/06/08 06:21:53;;;;;;;15.52;13.93;;;;;;;18.71;100.00;101630.25;5014645;28;20318;-73
2021/06/08 06:24:31;;;;;;;14.80;13.50;;;;;;;18.71;100.00;101630.25;5009719;28;20615;-72
2021/06/08 06:26:58;;;;;;;13.98;12.77;;;;;;;18.59;100.00;101638.19;5026214;28;20226;-72
2021/06/08 06:29:24;;;;;;;13.70;12.48;;;;;;;18.86;100.00;101632.72;5001049;28;20208;-73
2021/06/08 06:31:53;;;;;;;13.40;12.20;;;;;;;19.22;100.00;101638.13;5015379;28;20231;-73
2021/06/08 06:34:22;;;;;;;13.35;12.05;;;;;;;18.88;100.00;101641.50;4999978;28;20195;-72
2021/06/08 06:36:48;;;;;;;13.43;12.13;;;;;;;18.82;100.00;101637.22;5015824;28;20227;-73
2021/06/08 06:39:20;;;;;;;13.32;12.02;;;;;;;18.78;100.00;101644.44;5039502;28;20214;-73
2021/06/08 06:41:48;;;;;;;13.63;12.30;;;;;;;18.96;100.00;101650.69;5019227;28;20286;-72
2021/06/08 06:44:15;;;;;;;12.68;11.48;;;;;;;18.83;100.00;101641.59;4995231;28;20677;-71
2021/06/08 06:46:44;;;;;;;13.00;11.70;;;;;;;18.85;100.00;101647.63;5030086;28;20220;-71
2021/06/08 06:49:11;;;;;;;13.52;12.25;;;;;;;18.93;100.00;101651.28;5017560;28;20218;-73
2021/06/08 06:51:37;;;;;;;12.77;11.60;;;;;;;19.09;100.00;101649.94;4999245;28;20242;-72
2021/06/08 06:54:04;;;;;;;12.73;11.52;;;;;;;18.91;100.00;101644.47;5002582;28;20736;-73
2021/06/08 06:56:31;;;;;;;12.23;11.18;;;;;;;19.05;100.00;101645.34;5010385;28;20222;-71
2021/06/08 06:59:01;;;;;;;13.05;11.85;;;;;;;19.15;100.00;101645.97;5017461;28;20209;-72
2021/06/08 07:01:27;;;;;;;12.77;11.57;;;;;;;19.53;100.00;101639.16;5000258;28;20223;-72
2021/06/08 07:03:54;;;;;;;11.73;10.68;;;;;;;19.47;100.00;101643.16;5017331;28;20177;-72
2021/06/08 07:06:21;;;;;;;11.75;10.65;;;;;;;19.15;100.00;101654.22;5013060;28;20663;-70
2021/06/08 07:08:55;;;;;;;12.70;11.50;;;;;;;19.35;100.00;101637.31;5014233;28;20686;-72
2021/06/08 07:11:21;;;;;;;11.60;10.60;;;;;;;19.66;100.00;101645.44;5044005;28;20230;-73
2021/06/08 07:13:47;;;;;;;11.57;10.48;;;;;;;19.76;100.00;101648.03;5023342;28;20179;-71
2021/06/08 07:16:37;;;;;;;16.73;15.05;;;;;;;19.78;100.00;101644.97;4987082;28;20248;-71
2021/06/08 07:19:07;;;;;;;10.90;9.95;;;;;;;19.66;100.00;101650.97;5020678;28;20208;-72
2021/06/08 07:21:35;;;;;;;10.50;9.60;;;;;;;19.79;100.00;101647.38;5040434;28;20224;-73
2021/06/08 07:24:17;;;;;;;12.00;10.25;;;;;;;19.72;100.00;101655.28;5041020;28;20194;-72
2021/06/08 07:26:46;;;;;;;11.00;9.90;;;;;;;20.34;100.00;101646.16;5046471;28;20301;-72
2021/06/08 07:29:13;;;;;;;10.20;9.30;;;;;;;20.36;100.00;101652.97;5064907;28;20262;-72
2021/06/08 07:31:53;;;;;;;10.82;9.73;;;;;;;20.38;100.00;101655.44;5044607;28;20327;-72
2021/06/08 07:34:45;;;;;;;10.65;9.75;;;;;;;20.17;100.00;101651.53;5063223;28;20192;-73
2021/06/08 07:41:02;;;;;;;9.80;8.85;;;;;;;20.43;100.00;101658.09;5042257;28;20631;-70
2021/06/08 07:43:37;;;;;;;10.80;9.80;;;;;;;20.12;100.00;101649.69;5039395;28;20211;-73
2021/06/08 07:46:07;;;;;;;10.70;9.75;;;;;;;19.98;100.00;101652.78;5019853;28;20291;-70
2021/06/08 07:48:34;;;;;;;10.65;9.68;;;;;;;20.30;100.00;101650.69;5040257;28;20202;-72
2021/06/08 07:51:03;;;;;;;9.70;8.90;;;;;;;20.45;100.00;101653.88;5054093;28;20227;-71
2021/06/08 07:53:32;;;;;;;9.77;8.98;;;;;;;21.00;100.00;101653.31;5031521;28;20192;-71
2021/06/08 07:55:59;;;;;;;9.52;8.63;;;;;;;21.09;100.00;101656.94;5029028;28;20713;-72
2021/06/08 07:58:25;;;;;;;9.02;8.13;;;;;;;21.36;100.00;101655.63;5030122;28;20223;-71
2021/06/08 08:00:59;;;;;;;9.50;8.48;;;;;;;21.41;100.00;101658.28;5042786;28;20301;-72
2021/06/08 08:03:28;;;;;;;9.50;7.70;;;;;;;21.25;100.00;101659.78;4997345;28;20219;-71
2021/06/08 08:06:01;;;;;;;8.75;7.95;;;;;;;21.84;100.00;101650.94;5027565;28;20246;-71
2021/06/08 08:08:28;;;;;;;8.60;7.80;;;;;;;21.69;100.00;101665.22;4997323;28;20192;-73
2021/06/08 08:10:59;;;;;;;9.00;8.20;;;;;;;21.11;100.00;101674.03;5043689;28;20224;-71
2021/06/08 08:13:27;;;;;;;8.52;7.80;;;;;;;21.10;100.00;101666.84;5045733;28;20658;-72
2021/06/08 08:15:55;;;;;;;8.52;7.78;;;;;;;21.16;100.00;101668.38;5027451;28;20228;-73
2021/06/08 08:18:24;;;;;;;8.20;7.53;;;;;;;21.06;100.00;101677.75;5029713;28;20230;-73
2021/06/08 08:20:53;;;;;;;8.57;7.78;;;;;;;20.98;100.00;101674.94;5026705;28;20226;-73
2021/06/08 08:23:20;;;;;;;8.10;7.40;;;;;;;21.07;100.00;101670.28;5028057;28;20223;-73
2021/06/08 08:25:49;;;;;;;8.45;7.68;;;;;;;21.17;100.00;101678.28;5011697;28;20227;-73
2021/06/08 08:28:18;;;;;;;7.93;7.22;;;;;;;21.46;99.25;101671.94;5012483;28;20667;-72
2021/06/08 08:30:51;;;;;;;8.27;7.47;;;;;;;21.31;99.79;101675.09;5010774;28;20224;-73
2021/06/08 08:33:18;;;;;;;8.30;7.60;;;;;;;21.58;100.00;101669.41;5028407;28;20650;-73
2021/06/08 08:35:44;;;;;;;8.68;7.68;;;;;;;22.14;99.25;101672.94;5027066;28;20228;-73
2021/06/08 08:38:14;;;;;;;7.57;6.88;;;;;;;22.12;96.92;101669.69;5029381;28;20212;-71
2021/06/08 08:40:40;;;;;;;7.72;7.03;;;;;;;22.12;96.07;101665.00;5028114;28;20224;-73
2021/06/08 08:43:13;;;;;;;7.25;6.65;;;;;;;22.64;93.50;101667.47;5028572;28;20591;-73
2021/06/08 08:45:40;;;;;;;7.15;6.60;;;;;;;21.94;92.03;101672.75;5024226;28;20698;-74
2021/06/08 08:48:07;;;;;;;7.30;6.57;;;;;;;21.87;95.61;101664.13;5046112;28;20192;-73
2021/06/08 08:50:33;;;;;;;6.85;6.25;;;;;;;22.07;94.20;101661.56;5032352;28;20781;-73
2021/06/08 08:53:02;;;;;;;7.15;6.45;;;;;;;22.45;93.28;101664.22;5029049;28;20207;-72
2021/06/08 08:55:32;;;;;;;8.02;7.32;;;;;;;22.27;91.50;101659.00;4997516;28;20232;-74
2021/06/08 08:57:59;;;;;;;6.85;6.25;;;;;;;22.44;90.79;101659.00;5006893;28;20673;-72
2021/06/08 09:00:31;;;;;;;7.25;6.55;;;;;;;22.18;91.91;101660.94;5030366;28;20784;-72
2021/06/08 09:03:03;;;;;;;7.13;6.53;;;;;;;22.17;92.85;101652.97;5030825;28;20283;-72
2021/06/08 09:05:35;;;;;;;6.55;6.05;;;;;;;22.18;93.01;101658.19;5013784;28;20242;-74
2021/06/08 09:08:06;;;;;;;7.18;6.47;;;;;;;22.41;94.49;101662.41;5047727;28;20179;-71
2021/06/08 09:10:33;;;;;;;7.07;6.47;;;;;;;22.42;93.72;101659.31;5031896;28;20247;-70
2021/06/08 09:12:59;;;;;;;6.93;6.32;;;;;;;22.97;90.31;101655.53;5014183;28;20180;-72
2021/06/08 09:15:25;;;;;;;7.60;6.78;;;;;;;23.34;87.89;101660.31;5024737;28;20651;-71
2021/06/08 09:17:57;;;;;;;6.25;5.70;;;;;;;23.20;87.64;101654.16;5009178;28;20216;-73
2021/06/08 09:20:26;;;;;;;6.68;6.13;;;;;;;23.12;88.46;101652.22;5024990;28;20630;-73
2021/06/08 09:23:10;;;;;;;6.40;5.88;;;;;;;22.49;91.02;101653.28;5023419;28;20215;-72
2021/06/08 09:25:44;;;;;;;7.40;6.30;;;;;;;22.61;90.96;101647.91;4998526;28;20309;-72
2021/06/08 09:28:28;;;;;;;8.95;8.05;;;;;;;22.48;90.50;101655.25;5004531;28;20191;-73
2021/06/08 09:31:12;;;;;;;7.55;6.78;;;;;;;22.54;90.74;101653.13;5024288;28;20208;-73
2021/06/08 09:33:39;;;;;;;6.43;5.82;;;;;;;22.63;90.93;101654.72;5023863;28;20723;-75
2021/06/08 09:36:11;;;;;;;6.60;6.00;;;;;;;22.92;88.66;101652.94;5007221;28;20219;-73
2021/06/08 09:38:41;;;;;;;6.20;5.68;;;;;;;22.60;90.78;101651.81;5027645;28;20305;-73
2021/06/08 09:41:13;;;;;;;6.97;6.38;;;;;;;22.36;91.17;101651.47;5051040;28;20265;-71
2021/06/08 09:44:04;;;;;;;7.63;6.93;;;;;;;22.72;89.19;101658.31;5031030;28;20212;-73
2021/06/08 09:46:46;;;;;;;6.28;5.57;;;;;;;22.27;91.04;101650.69;4998072;28;20791;-72
2021/06/08 09:49:25;;;;;;;7.68;6.05;;;;;;;22.47;89.17;101655.56;5015119;28;20207;-73
2021/06/08 09:52:12;;;;;;;6.45;5.93;;;;;;;22.52;90.39;101647.09;4999840;28;20301;-74
2021/06/08 09:54:40;;;;;;;6.28;5.68;;;;;;;22.57;88.19;101644.97;5031152;28;20570;-74
2021/06/08 09:57:30;;;;;;;6.03;5.43;;;;;;;22.47;88.97;101645.31;5013818;28;20607;-73
2021/06/08 10:00:00;;;;;;;6.30;5.55;;;;;;;22.43;86.43;101643.50;5001046;28;20205;-74
2021/06/08 10:02:35;;;;;;;5.45;4.82;;;;;;;22.29;85.62;101642.88;4980342;28;20279;-72
2021/06/08 10:05:49;;;;;;;6.03;5.43;;;;;;;22.23;88.32;101638.63;5015721;28;20249;-73
2021/06/08 10:08:16;;;;;;;5.90;5.35;;;;;;;22.62;87.85;101630.97;5032040;28;20223;-74
2021/06/08 10:10:47;;;;;;;7.78;6.05;;;;;;;23.04;87.52;101633.66;5040785;28;20227;-74
2021/06/08 10:13:22;;;;;;;6.60;5.90;;;;;;;22.69;86.07;101633.22;5018092;28;20187;-73
2021/06/08 10:16:07;;;;;;;6.07;5.57;;;;;;;23.03;85.79;101632.03;5017179;28;20605;-75
2021/06/08 10:18:50;;;;;;;5.82;5.25;;;;;;;23.53;86.24;101625.44;5003521;28;20565;-75
2021/06/08 10:21:36;;;;;;;5.07;4.68;;;;;;;23.59;79.98;101627.75;5017776;28;20231;-73
2021/06/08 10:24:05;;;;;;;5.88;5.28;;;;;;;23.75;78.10;101625.19;5001662;28;20677;-73
2021/06/08 10:26:35;;;;;;;5.95;5.35;;;;;;;23.87;79.90;101620.56;5000492;28;20227;-73
2021/06/08 10:29:09;;;;;;;5.18;4.65;;;;;;;23.85;78.98;101622.84;5017247;28;20807;-74
2021/06/08 10:31:36;;;;;;;4.93;4.53;;;;;;;23.65;80.34;101623.63;5033166;28;20223;-73
2021/06/08 10:34:10;;;;;;;5.53;5.00;;;;;;;23.87;78.59;101620.56;5050410;28;20190;-72
2021/06/08 10:36:40;;;;;;;6.35;4.68;;;;;;;23.68;76.17;101628.53;5016726;28;20226;-73
2021/06/08 10:39:08;;;;;;;4.82;4.35;;;;;;;23.81;72.49;101619.13;5013665;28;20366;-72
2021/06/08 10:41:36;;;;;;;4.95;4.47;;;;;;;23.83;73.27;101619.59;5014391;28;20259;-72
2021/06/08 10:44:05;;;;;;;4.47;4.07;;;;;;;23.79;74.74;101617.81;5018542;28;20184;-72
2021/06/08 10:46:40;;;;;;;5.10;4.60;;;;;;;23.64;74.33;101613.69;4983793;28;20790;-72
2021/06/08 10:49:09;;;;;;;5.43;3.97;;;;;;;23.62;72.00;101623.47;5014606;28;20207;-78
2021/06/08 10:51:40;;;;;;;5.03;3.90;;;;;;;23.90;69.29;101619.06;5027615;28;20228;-72
2021/06/08 10:54:39;;;;;;;4.78;3.85;;;;;;;23.69;70.33;101613.47;5031908;28;20192;-73
2021/06/08 10:57:11;;;;;;;4.20;3.72;;;;;;;23.76;72.47;101610.19;4986161;28;20273;-73
2021/06/08 10:59:45;;;;;;;4.43;4.00;;;;;;;24.04;70.17;101614.88;5013858;28;20709;-74
2021/06/08 11:02:14;;;;;;;3.92;3.38;;;;;;;24.03;67.03;101607.72;5011403;28;20748;-73
2021/06/08 11:04:58;;;;;;;4.45;3.45;;;;;;;24.03;63.02;101607.72;5013863;28;20598;-73
2021/06/08 11:07:43;;;;;;;3.78;3.35;;;;;;;24.55;63.94;101604.97;5012907;28;20331;-73
2021/06/08 11:10:30;;;;;;;4.50;3.50;;;;;;;25.14;63.56;101605.16;5044427;28;20306;-74
2021/06/08 11:13:09;;;;;;;4.35;3.90;;;;;;;24.24;63.10;101600.19;5012586;28;20658;-73
2021/06/08 11:15:41;;;;;;;4.32;3.65;;;;;;;24.47;63.23;101600.31;5028198;28;20238;-73
2021/06/08 11:18:20;;;;;;;4.47;4.07;;;;;;;24.67;63.82;101601.41;4998748;28;20192;-74
2021/06/08 11:20:57;;;;;;;3.95;3.60;;;;;;;25.04;61.60;101601.22;5022688;28;20222;-71
2021/06/08 11:23:34;;;;;;;3.97;3.60;;;;;;;25.20;59.21;101601.00;5033270;28;20761;-72
2021/06/08 11:26:07;;;;;;;4.13;3.70;;;;;;;25.54;57.92;101609.69;5016271;28;20280;-73
2021/06/08 11:28:54;;;;;;;4.47;3.83;;;;;;;25.34;58.23;101607.03;5010576;28;20590;-72
2021/06/08 11:31:24;;;;;;;4.43;3.70;;;;;;;24.99;58.67;101609.78;5016515;28;20715;-73
2021/06/08 11:34:01;;;;;;;4.00;3.70;;;;;;;24.54;59.14;101606.16;5016440;28;20210;-72